createdAt,value
2019-05-25T00:01:55.046Z,22.47
2019-05-25T00:04:27.699Z,22.27
2019-05-25T00:07:00.323Z,23.87
2019-05-25T00:09:33.904Z,22.83
2019-05-25T00:12:05.866Z,23.20
2019-05-25T00:14:38.302Z,23.57
2019-05-25T00:17:10.953Z,22.90
2019-05-25T00:19:43.606Z,20.97
2019-05-25T00:22:16.999Z,22.00
2019-05-25T00:24:50.162Z,21.30
2019-05-25T00:27:23.438Z,23.00
2019-05-25T00:29:56.450Z,24.13
2019-05-25T00:32:29.369Z,22.03
2019-05-25T00:35:07.312Z,23.10
2019-05-25T00:37:39.628Z,23.97
2019-05-25T00:40:12.296Z,23.17
2019-05-25T00:42:44.728Z,23.37
2019-05-25T00:45:17.886Z,24.37
2019-05-25T00:47:51.010Z,23.60
2019-05-25T00:50:23.509Z,24.40
2019-05-25T00:52:56.041Z,24.33
2019-05-25T00:55:28.518Z,22.67
2019-05-25T00:58:00.807Z,22.90
2019-05-25T01:00:32.554Z,25.43
2019-05-25T01:06:15.922Z,24.47
2019-05-25T01:08:47.742Z,24.00
2019-05-25T01:11:19.535Z,23.40
2019-05-25T01:13:51.185Z,25.67
2019-05-25T01:16:23.260Z,23.57
2019-05-25T01:18:55.892Z,24.43
2019-05-25T01:21:29.281Z,23.53
2019-05-25T01:24:02.997Z,22.53
2019-05-25T01:26:35.798Z,24.40
2019-05-25T01:29:08.075Z,25.23
2019-05-25T01:34:51.170Z,22.67
2019-05-25T01:37:23.277Z,24.27
2019-05-25T01:39:56.750Z,26.00
2019-05-25T01:42:30.141Z,26.60
2019-05-25T01:45:02.921Z,26.17
2019-05-25T01:47:36.189Z,24.97
2019-05-25T01:50:09.046Z,26.07
2019-05-25T01:52:41.904Z,26.20
2019-05-25T01:55:16.639Z,27.20
2019-05-25T01:57:49.329Z,28.90
2019-05-25T02:00:22.008Z,27.53
2019-05-25T02:02:55.249Z,27.87
2019-05-25T02:05:27.803Z,27.27
2019-05-25T02:08:00.082Z,28.47
2019-05-25T02:10:32.731Z,26.53
2019-05-25T02:13:05.817Z,29.20
2019-05-25T02:15:39.187Z,27.43
2019-05-25T02:18:12.003Z,26.10
2019-05-25T02:20:46.640Z,25.53
2019-05-25T02:23:19.952Z,26.93
2019-05-25T02:25:52.012Z,28.03
2019-05-25T02:28:24.468Z,29.70
2019-05-25T02:30:58.286Z,25.73
2019-05-25T02:33:31.696Z,28.77
2019-05-25T02:36:04.444Z,29.03
2019-05-25T02:38:36.994Z,29.37
2019-05-25T02:41:09.458Z,28.83
2019-05-25T02:43:41.466Z,27.37
2019-05-25T02:46:13.091Z,26.83
2019-05-25T02:48:46.426Z,29.33
2019-05-25T02:51:19.418Z,29.33
2019-05-25T02:53:52.068Z,29.47
2019-05-25T02:56:24.772Z,30.73
2019-05-25T02:58:56.804Z,28.73
2019-05-25T03:01:29.286Z,30.53
2019-05-25T03:04:01.720Z,29.87
2019-05-25T03:06:34.731Z,32.10
2019-05-25T03:09:08.829Z,33.50
2019-05-25T03:11:41.667Z,31.27
2019-05-25T03:14:15.946Z,28.33
2019-05-25T03:16:48.614Z,27.23
2019-05-25T03:19:21.352Z,26.53
2019-05-25T03:21:53.749Z,26.07
2019-05-25T03:24:25.499Z,26.33
2019-05-25T03:27:01.215Z,27.87
2019-05-25T03:29:33.382Z,30.93
2019-05-25T03:32:07.468Z,26.63
2019-05-25T03:34:40.136Z,29.10
2019-05-25T03:37:14.555Z,30.63
2019-05-25T03:39:46.971Z,28.20
2019-05-25T03:42:19.618Z,28.80
2019-05-25T03:44:52.254Z,31.97
2019-05-25T03:47:24.687Z,32.20
2019-05-25T03:49:58.635Z,30.13
2019-05-25T03:52:38.982Z,30.73
2019-05-25T03:55:11.477Z,30.83
2019-05-25T03:57:44.052Z,31.67
2019-05-25T04:00:17.440Z,32.60
2019-05-25T04:02:50.763Z,33.60
2019-05-25T04:05:22.967Z,32.17
2019-05-25T04:07:55.156Z,32.90
2019-05-25T04:10:28.204Z,31.93
2019-05-25T04:13:00.473Z,30.20
2019-05-25T04:15:32.711Z,29.47
2019-05-25T04:18:04.532Z,30.67
2019-05-25T04:20:37.416Z,33.27
2019-05-25T04:23:10.091Z,36.73
2019-05-25T04:25:42.127Z,35.93
2019-05-25T04:28:15.014Z,37.33
2019-05-25T04:30:49.248Z,35.60
2019-05-25T04:33:21.719Z,38.27
2019-05-25T04:35:53.850Z,36.73
2019-05-25T04:38:29.950Z,35.10
2019-05-25T04:41:01.841Z,33.90
2019-05-25T04:43:34.141Z,34.77
2019-05-25T04:46:06.493Z,34.10
2019-05-25T04:48:38.906Z,39.13
2019-05-25T04:51:11.650Z,32.90
2019-05-25T04:53:44.074Z,32.60
2019-05-25T04:56:16.246Z,33.33
2019-05-25T04:58:48.939Z,34.53
2019-05-25T05:01:22.537Z,35.50
2019-05-25T05:03:55.299Z,33.60
2019-05-25T05:06:27.488Z,35.60
2019-05-25T05:08:59.839Z,33.07
2019-05-25T05:11:32.199Z,32.63
2019-05-25T05:14:04.474Z,31.63
2019-05-25T05:16:36.656Z,31.30
2019-05-25T05:19:11.594Z,30.83
2019-05-25T05:21:44.164Z,30.93
2019-05-25T05:24:16.834Z,30.53
2019-05-25T05:26:55.884Z,29.33
2019-05-25T05:29:24.615Z,27.63
2019-05-25T05:31:56.550Z,28.57
2019-05-25T05:34:29.039Z,27.73
2019-05-25T05:37:03.956Z,27.30
2019-05-25T05:39:37.124Z,27.10
2019-05-25T05:42:11.361Z,26.57
2019-05-25T05:44:44.848Z,26.63
2019-05-25T05:47:18.000Z,26.20
2019-05-25T05:49:51.437Z,27.70
2019-05-25T05:52:25.317Z,26.40
2019-05-25T05:58:08.000Z,25.77
2019-05-25T06:00:40.321Z,26.00
2019-05-25T06:03:12.859Z,25.47
2019-05-25T06:05:45.664Z,25.80
2019-05-25T06:08:17.477Z,25.83
2019-05-25T06:10:50.819Z,27.30
2019-05-25T06:13:22.643Z,25.53
2019-05-25T06:15:56.088Z,26.83
2019-05-25T06:18:28.095Z,26.77
2019-05-25T06:20:59.844Z,26.53
2019-05-25T06:23:32.633Z,25.40
2019-05-25T06:26:05.111Z,27.80
2019-05-25T06:28:38.240Z,32.00
2019-05-25T06:31:10.036Z,28.07
2019-05-25T06:33:42.416Z,28.30
2019-05-25T06:36:14.815Z,27.77
2019-05-25T06:38:46.939Z,28.70
2019-05-25T06:41:18.907Z,29.00
2019-05-25T06:43:51.121Z,30.13
2019-05-25T06:46:23.261Z,31.30
2019-05-25T06:48:55.774Z,30.70
2019-05-25T06:51:27.703Z,30.33
2019-05-25T06:54:00.141Z,32.10
2019-05-25T06:56:32.265Z,41.47
2019-05-25T06:59:04.608Z,36.80
2019-05-25T07:01:39.259Z,30.67
2019-05-25T07:04:11.632Z,28.50
2019-05-25T07:06:43.382Z,31.83
2019-05-25T07:09:16.063Z,29.87
2019-05-25T07:11:48.394Z,35.20
2019-05-25T07:14:20.764Z,36.17
2019-05-25T07:16:52.510Z,33.93
2019-05-25T07:19:24.548Z,33.20
2019-05-25T07:21:58.591Z,32.37
2019-05-25T07:24:30.703Z,32.97
2019-05-25T07:27:03.308Z,33.53
2019-05-25T07:29:36.096Z,36.90
2019-05-25T07:32:08.301Z,33.47
2019-05-25T07:34:40.534Z,40.47
2019-05-25T07:37:13.904Z,38.40
2019-05-25T07:39:46.407Z,39.70
2019-05-25T07:42:20.047Z,43.17
2019-05-25T07:44:52.651Z,36.90
2019-05-25T07:47:25.040Z,36.10
2019-05-25T07:49:57.891Z,35.30
2019-05-25T07:52:30.707Z,33.70
2019-05-25T07:55:02.964Z,38.90
2019-05-25T07:57:34.978Z,36.70
2019-05-25T08:00:10.067Z,36.90
2019-05-25T08:02:42.422Z,39.13
2019-05-25T08:05:14.901Z,37.27
2019-05-25T08:07:47.438Z,36.10
2019-05-25T08:10:19.947Z,36.17
2019-05-25T08:12:51.853Z,36.40
2019-05-25T08:15:24.498Z,32.07
2019-05-25T08:17:56.078Z,35.20
2019-05-25T08:20:29.718Z,32.90
2019-05-25T08:23:02.641Z,30.93
2019-05-25T08:25:34.689Z,31.67
2019-05-25T08:28:07.442Z,30.10
2019-05-25T08:30:39.811Z,25.83
2019-05-25T08:33:12.106Z,25.97
2019-05-25T08:38:58.343Z,25.57
2019-05-25T08:41:31.145Z,27.70
2019-05-25T08:44:04.540Z,25.50
2019-05-25T08:46:40.033Z,26.00
2019-05-25T08:49:12.169Z,23.20
2019-05-25T08:51:44.667Z,22.67
2019-05-25T08:54:17.403Z,22.63
2019-05-25T08:56:51.796Z,20.67
2019-05-25T08:59:25.000Z,23.00
2019-05-25T09:01:57.288Z,25.60
2019-05-25T09:04:29.127Z,24.73
2019-05-25T09:07:03.940Z,26.37
2019-05-25T09:09:36.325Z,24.93
2019-05-25T09:12:08.675Z,25.23
2019-05-25T09:14:40.943Z,24.93
2019-05-25T09:17:13.029Z,24.23
2019-05-25T09:19:45.358Z,24.20
2019-05-25T09:22:17.544Z,24.57
2019-05-25T09:24:49.979Z,23.87
2019-05-25T09:27:22.186Z,22.70
2019-05-25T09:29:54.437Z,22.60
2019-05-25T09:32:26.533Z,22.83
2019-05-25T09:34:58.963Z,24.23
2019-05-25T09:37:31.838Z,23.37
2019-05-25T09:40:06.635Z,22.50
2019-05-25T09:42:38.935Z,18.67
2019-05-25T09:45:14.202Z,20.33
2019-05-25T09:47:46.161Z,22.07
2019-05-25T09:50:18.727Z,19.50
2019-05-25T09:52:50.978Z,19.30
2019-05-25T09:55:23.571Z,18.77
2019-05-25T09:57:55.779Z,20.50
2019-05-25T10:00:28.308Z,20.27
2019-05-25T10:03:05.423Z,18.37
2019-05-25T10:05:38.317Z,19.77
2019-05-25T10:08:10.585Z,20.23
2019-05-25T10:10:43.038Z,20.37
2019-05-25T10:13:16.279Z,20.03
2019-05-25T10:15:48.421Z,20.17
2019-05-25T10:18:20.197Z,21.03
2019-05-25T10:20:55.055Z,19.83
2019-05-25T10:23:28.302Z,19.37
2019-05-25T10:26:00.377Z,17.67
2019-05-25T10:28:32.398Z,17.33
2019-05-25T10:31:04.670Z,19.53
2019-05-25T10:33:38.455Z,19.47
2019-05-25T10:36:11.397Z,16.73
2019-05-25T10:38:44.828Z,17.17
2019-05-25T10:41:17.005Z,19.17
2019-05-25T10:43:49.347Z,20.90
2019-05-25T10:46:21.389Z,18.60
2019-05-25T10:48:53.684Z,16.23
2019-05-25T10:51:26.163Z,16.50
2019-05-25T10:53:58.916Z,16.80
2019-05-25T10:56:31.044Z,15.90
2019-05-25T10:59:03.201Z,13.87
2019-05-25T11:01:36.727Z,15.50
2019-05-25T11:04:08.688Z,14.00
2019-05-25T11:06:41.442Z,13.33
2019-05-25T11:09:15.187Z,15.33
2019-05-25T11:11:46.982Z,14.97
2019-05-25T11:14:19.745Z,14.60
2019-05-25T11:16:51.779Z,15.57
2019-05-25T11:19:41.855Z,16.63
2019-05-25T11:22:14.863Z,14.07
2019-05-25T11:24:47.277Z,16.57
2019-05-25T11:27:19.272Z,15.50
2019-05-25T11:29:51.294Z,16.23
2019-05-25T11:32:23.886Z,15.80
2019-05-25T11:34:57.554Z,16.30
2019-05-25T11:37:29.245Z,15.80
2019-05-25T11:40:02.379Z,16.03
2019-05-25T11:42:34.106Z,16.67
2019-05-25T11:45:06.804Z,17.77
2019-05-25T11:47:39.681Z,17.77
2019-05-25T11:50:12.672Z,17.63
2019-05-25T11:52:45.745Z,16.87
2019-05-25T11:55:19.534Z,18.13
2019-05-25T11:57:52.035Z,18.20
2019-05-25T12:00:26.860Z,19.93
2019-05-25T12:02:58.798Z,18.70
2019-05-25T12:05:31.304Z,21.10
2019-05-25T12:08:03.094Z,20.43
2019-05-25T12:10:35.207Z,20.67
2019-05-25T12:13:07.519Z,20.23
2019-05-25T12:15:39.334Z,22.27
2019-05-25T12:21:22.481Z,22.50
2019-05-25T12:23:54.812Z,22.93
2019-05-25T12:26:27.009Z,25.93
2019-05-25T12:28:58.851Z,25.00
2019-05-25T12:31:30.896Z,24.63
2019-05-25T12:34:02.980Z,25.80
2019-05-25T12:36:36.000Z,26.97
2019-05-25T12:39:09.272Z,27.70
2019-05-25T12:44:52.510Z,29.27
2019-05-25T12:47:24.687Z,29.70
2019-05-25T12:49:56.639Z,29.23
2019-05-25T12:52:28.525Z,31.47
2019-05-25T12:55:00.753Z,32.13
2019-05-25T12:57:32.887Z,31.13
2019-05-25T13:00:15.026Z,32.97
2019-05-25T13:02:38.847Z,35.53
2019-05-25T13:05:12.409Z,36.47
2019-05-25T13:07:45.091Z,37.43
2019-05-25T13:10:16.866Z,35.83
2019-05-25T13:12:48.618Z,37.37
2019-05-25T13:15:24.406Z,37.20
2019-05-25T13:17:58.480Z,39.80
2019-05-25T13:20:31.351Z,39.70
2019-05-25T13:23:05.537Z,40.40
2019-05-25T13:25:37.717Z,41.37
2019-05-25T13:28:09.805Z,41.73
2019-05-25T13:30:41.869Z,40.47
2019-05-25T13:33:14.240Z,38.70
2019-05-25T13:35:46.420Z,38.30
2019-05-25T13:38:18.571Z,37.80
2019-05-25T13:40:50.815Z,40.23
2019-05-25T13:43:23.367Z,40.27
2019-05-25T13:45:55.493Z,38.73
2019-05-25T13:48:27.726Z,39.83
2019-05-25T13:51:00.112Z,32.87
2019-05-25T13:53:33.087Z,31.27
2019-05-25T13:56:05.552Z,29.67
2019-05-25T13:58:39.227Z,28.00
2019-05-25T14:01:27.221Z,24.40
2019-05-25T14:03:45.121Z,23.47
2019-05-25T14:06:17.496Z,24.20
2019-05-25T14:08:50.356Z,22.97
2019-05-25T14:14:33.246Z,28.40
2019-05-25T14:17:05.133Z,28.40
2019-05-25T14:19:36.825Z,27.33
2019-05-25T14:22:08.780Z,27.13
2019-05-25T14:24:41.201Z,25.40
2019-05-25T14:27:13.910Z,28.13
2019-05-25T14:29:46.410Z,29.83
2019-05-25T14:32:18.053Z,29.77
2019-05-25T14:34:50.227Z,29.87
2019-05-25T14:37:22.788Z,30.03
2019-05-25T14:39:54.221Z,31.20
2019-05-25T14:42:26.168Z,29.00
2019-05-25T14:44:58.430Z,25.77
2019-05-25T14:47:30.804Z,25.90
2019-05-25T14:50:03.052Z,26.50
2019-05-25T14:52:36.355Z,21.93
2019-05-25T14:55:09.542Z,22.87
2019-05-25T14:57:41.881Z,23.10
2019-05-25T15:00:14.945Z,23.50
2019-05-25T15:02:46.498Z,21.17
2019-05-25T15:05:18.354Z,18.37
2019-05-25T15:07:50.274Z,16.77
2019-05-25T15:10:22.289Z,15.30
2019-05-25T15:12:56.439Z,13.37
2019-05-25T15:18:38.892Z,12.03
2019-05-25T15:21:11.747Z,11.10
2019-05-25T15:23:43.570Z,9.67
2019-05-25T15:26:15.481Z,9.40
2019-05-25T15:28:47.681Z,9.43
2019-05-25T15:31:20.284Z,9.83
2019-05-25T15:33:52.662Z,9.13
2019-05-25T15:36:25.371Z,9.53
2019-05-25T15:39:01.647Z,10.87
2019-05-25T15:41:36.263Z,11.07
2019-05-25T15:44:08.445Z,13.03
2019-05-25T15:46:41.584Z,11.70
2019-05-25T15:49:13.813Z,11.60
2019-05-25T15:51:46.349Z,10.70
2019-05-25T15:54:21.542Z,8.47
2019-05-25T16:00:06.678Z,9.00
2019-05-25T16:02:38.774Z,8.40
2019-05-25T16:05:12.169Z,8.13
2019-05-25T16:07:48.170Z,7.43
2019-05-25T16:10:22.767Z,7.13
2019-05-25T16:12:55.240Z,8.57
2019-05-25T16:15:30.684Z,7.70
2019-05-25T16:18:03.439Z,8.57
2019-05-25T16:20:35.960Z,12.03
2019-05-25T16:23:07.839Z,9.20
2019-05-25T16:25:40.058Z,7.60
2019-05-25T16:28:12.679Z,8.40
2019-05-25T16:30:44.461Z,8.03
2019-05-25T16:33:16.463Z,7.80
2019-05-25T16:35:48.440Z,7.33
2019-05-25T16:38:21.242Z,10.43
2019-05-25T16:40:53.639Z,7.80
2019-05-25T16:43:27.462Z,8.50
2019-05-25T16:45:59.265Z,7.53
2019-05-25T16:48:31.196Z,7.93
2019-05-25T16:51:03.224Z,7.10
2019-05-25T16:53:35.687Z,7.50
2019-05-25T16:56:07.722Z,8.53
2019-05-25T16:58:39.676Z,8.77
2019-05-25T17:01:12.094Z,8.70
2019-05-25T17:03:46.353Z,8.00
2019-05-25T17:06:18.433Z,7.60
2019-05-25T17:08:50.972Z,8.33
2019-05-25T17:11:23.284Z,8.67
2019-05-25T17:13:56.057Z,8.73
2019-05-25T17:16:28.808Z,8.57
2019-05-25T17:19:00.779Z,9.30
2019-05-25T17:21:32.568Z,8.43
2019-05-25T17:24:06.052Z,10.00
2019-05-25T17:26:39.339Z,9.23
2019-05-25T17:29:11.091Z,9.03
2019-05-25T17:34:54.509Z,7.17
2019-05-25T17:37:27.242Z,7.13
2019-05-25T17:39:59.915Z,7.53
2019-05-25T17:42:32.959Z,7.00
2019-05-25T17:45:05.706Z,7.30
2019-05-25T17:47:38.108Z,6.57
2019-05-25T17:50:12.057Z,6.80
2019-05-25T17:52:44.414Z,7.50
2019-05-25T17:55:17.882Z,6.90
2019-05-25T17:57:50.661Z,5.93
2019-05-25T18:00:39.461Z,6.80
2019-05-25T18:03:12.442Z,7.20
2019-05-25T18:05:45.175Z,7.20
2019-05-25T18:08:18.146Z,6.70
2019-05-25T18:10:54.354Z,7.40
2019-05-25T18:13:24.527Z,7.33
2019-05-25T18:15:57.045Z,7.00
2019-05-25T18:18:28.932Z,7.33
2019-05-25T18:21:01.405Z,7.23
2019-05-25T18:23:34.104Z,8.10
2019-05-25T18:26:07.568Z,7.60
2019-05-25T18:28:40.273Z,8.13
2019-05-25T18:31:13.006Z,8.00
2019-05-25T18:33:46.027Z,7.57
2019-05-25T18:36:18.162Z,7.50
2019-05-25T18:38:51.570Z,10.43
2019-05-25T18:41:23.264Z,8.00
2019-05-25T18:43:56.821Z,7.77
2019-05-25T18:46:29.407Z,8.40
2019-05-25T18:49:03.380Z,9.00
2019-05-25T18:51:36.100Z,9.33
2019-05-25T18:54:08.326Z,10.33
2019-05-25T18:56:41.629Z,10.83
2019-05-25T18:59:14.111Z,9.77
2019-05-25T19:01:45.997Z,9.90
2019-05-25T19:04:18.557Z,9.50
2019-05-25T19:06:50.971Z,10.27
2019-05-25T19:09:23.408Z,10.27
2019-05-25T19:11:55.994Z,11.40
2019-05-25T19:14:29.048Z,11.13
2019-05-25T19:17:01.511Z,9.83
2019-05-25T19:19:33.379Z,10.27
2019-05-25T19:22:06.783Z,10.77
2019-05-25T19:24:41.366Z,10.70
2019-05-25T19:27:13.729Z,11.37
2019-05-25T19:29:48.740Z,10.83
2019-05-25T19:32:22.049Z,10.67
2019-05-25T19:34:59.584Z,10.67
2019-05-25T19:37:27.999Z,11.00
2019-05-25T19:40:07.911Z,10.20
2019-05-25T19:42:36.002Z,12.03
2019-05-25T19:45:10.328Z,12.77
2019-05-25T19:47:42.285Z,10.77
2019-05-25T19:50:15.598Z,11.90
2019-05-25T19:52:47.357Z,11.53
2019-05-25T19:55:19.745Z,11.17
2019-05-25T19:57:54.700Z,11.30
2019-05-25T20:00:28.667Z,10.57
2019-05-25T20:03:01.930Z,10.73
2019-05-25T20:05:34.065Z,11.60
2019-05-25T20:08:06.970Z,12.43
2019-05-25T20:10:39.927Z,11.80
2019-05-25T20:13:12.479Z,12.40
2019-05-25T20:15:50.526Z,13.27
2019-05-25T20:18:22.825Z,12.47
2019-05-25T20:20:55.077Z,12.20
2019-05-25T20:23:27.626Z,12.63
2019-05-25T20:25:59.715Z,11.87
2019-05-25T20:28:31.888Z,12.13
2019-05-25T20:31:43.745Z,12.40
2019-05-25T20:34:25.107Z,14.10
2019-05-25T20:36:57.397Z,13.00
2019-05-25T20:39:29.751Z,12.33
2019-05-25T20:42:03.382Z,12.97
2019-05-25T20:44:35.694Z,13.47
2019-05-25T20:47:07.770Z,12.70
2019-05-25T20:49:41.245Z,13.13
2019-05-25T20:52:13.757Z,18.73
2019-05-25T20:54:46.978Z,13.97
2019-05-25T20:57:19.090Z,13.50
2019-05-25T20:59:51.287Z,13.10
2019-05-25T21:02:25.736Z,13.20
2019-05-25T21:04:58.903Z,13.67
2019-05-25T21:07:31.424Z,13.67
2019-05-25T21:10:04.866Z,14.43
2019-05-25T21:12:36.992Z,14.73
2019-05-25T21:15:09.839Z,14.63
2019-05-25T21:17:42.307Z,15.57
2019-05-25T21:20:17.752Z,15.93
2019-05-25T21:22:51.540Z,16.50
2019-05-25T21:25:25.163Z,15.10
2019-05-25T21:27:57.944Z,14.07
2019-05-25T21:30:30.596Z,14.00
2019-05-25T21:33:03.665Z,15.30
2019-05-25T21:35:36.538Z,16.33
2019-05-25T21:38:14.163Z,17.63
2019-05-25T21:40:47.477Z,17.70
2019-05-25T21:43:19.830Z,15.87
2019-05-25T21:45:52.539Z,15.63
2019-05-25T21:48:25.749Z,16.77
2019-05-25T21:50:58.437Z,18.63
2019-05-25T21:53:30.891Z,18.67
2019-05-25T21:56:04.636Z,17.90
2019-05-25T21:58:37.405Z,17.77
2019-05-25T22:01:09.840Z,17.90
2019-05-25T22:03:42.615Z,20.33
2019-05-25T22:06:23.746Z,20.20
2019-05-25T22:08:49.032Z,21.73
2019-05-25T22:11:21.390Z,20.33
2019-05-25T22:13:54.311Z,21.23
2019-05-25T22:16:31.902Z,23.83
2019-05-25T22:19:04.870Z,21.40
2019-05-25T22:21:36.954Z,19.83
2019-05-25T22:24:09.161Z,18.57
2019-05-25T22:26:43.352Z,18.67
2019-05-25T22:29:16.388Z,20.07
2019-05-25T22:31:51.063Z,19.83
2019-05-25T22:34:24.177Z,19.97
2019-05-25T22:36:56.385Z,21.23
2019-05-25T22:39:30.200Z,18.90
2019-05-25T22:42:04.154Z,19.90
2019-05-25T22:44:37.725Z,21.37
2019-05-25T22:47:10.235Z,21.57
2019-05-25T22:49:42.066Z,19.93
2019-05-25T22:52:29.916Z,20.23
2019-05-25T22:55:03.262Z,20.20
2019-05-25T22:57:36.768Z,20.37
2019-05-25T23:00:10.293Z,20.43
2019-05-25T23:02:42.304Z,21.00
2019-05-25T23:05:14.291Z,22.40
2019-05-25T23:07:53.674Z,22.93
2019-05-25T23:10:26.131Z,20.93
2019-05-25T23:12:58.685Z,20.97
2019-05-25T23:15:31.426Z,22.17
2019-05-25T23:18:03.492Z,22.00
2019-05-25T23:20:36.634Z,21.83
2019-05-25T23:23:13.342Z,21.47
2019-05-25T23:25:45.483Z,20.50
2019-05-25T23:28:17.786Z,22.53
2019-05-25T23:30:49.910Z,21.73
2019-05-25T23:33:23.584Z,22.67
2019-05-25T23:35:55.816Z,22.87
2019-05-25T23:38:27.622Z,22.90
2019-05-25T23:41:01.928Z,23.97
2019-05-25T23:49:59.631Z,23.47
2019-05-25T23:52:30.584Z,23.60
2019-05-25T23:55:05.233Z,23.53
2019-05-25T23:57:41.437Z,21.67
